sensor_id;sensor_type;location;lat;lon;timestamp;temperature;humidity
20463;DHT22;10390;53.566;9.980;2022-10-26T00:00:23;24.00;1.00
20463;DHT22;10390;53.566;9.980;2022-10-26T00:02:48;24.00;1.00
20463;DHT22;10390;53.566;9.980;2022-10-26T00:05:14;24.00;1.00
20463;DHT22;10390;53.566;9.980;2022-10-26T00:07:39;24.10;1.00
20463;DHT22;10390;53.566;9.980;2022-10-26T00:10:05;24.00;1.00
20463;DHT22;10390;53.566;9.980;2022-10-26T00:12:31;24.00;1.00
20463;DHT22;10390;53.566;9.980;2022-10-26T00:14:56;24.00;1.00
20463;DHT22;10390;53.566;9.980;2022-10-26T00:17:22;24.00;1.00
20463;DHT22;10390;53.566;9.980;2022-10-26T00:19:48;24.10;1.00
20463;DHT22;10390;53.566;9.980;2022-10-26T00:22:13;24.00;1.00
20463;DHT22;10390;53.566;9.980;2022-10-26T00:24:39;24.00;1.00
20463;DHT22;10390;53.566;9.980;2022-10-26T00:27:04;24.00;1.00
20463;DHT22;10390;53.566;9.980;2022-10-26T00:29:30;24.00;1.00
20463;DHT22;10390;53.566;9.980;2022-10-26T00:31:55;24.00;1.00
20463;DHT22;10390;53.566;9.980;2022-10-26T00:34:21;24.00;1.00
20463;DHT22;10390;53.566;9.980;2022-10-26T00:36:47;24.00;1.00
20463;DHT22;10390;53.566;9.980;2022-10-26T00:39:12;24.00;1.00
20463;DHT22;10390;53.566;9.980;2022-10-26T00:41:39;24.00;1.00
20463;DHT22;10390;53.566;9.980;2022-10-26T00:47:30;24.00;1.00
20463;DHT22;10390;53.566;9.980;2022-10-26T00:50:00;24.00;1.00
20463;DHT22;10390;53.566;9.980;2022-10-26T00:52:27;24.00;1.00
20463;DHT22;10390;53.566;9.980;2022-10-26T00:54:53;24.00;1.00
20463;DHT22;10390;53.566;9.980;2022-10-26T00:57:19;24.00;1.00
20463;DHT22;10390;53.566;9.980;2022-10-26T00:59:45;24.00;1.00
20463;DHT22;10390;53.566;9.980;2022-10-26T01:02:11;24.00;1.00
20463;DHT22;10390;53.566;9.980;2022-10-26T01:04:38;24.00;1.00
20463;DHT22;10390;53.566;9.980;2022-10-26T01:07:04;24.00;1.00
20463;DHT22;10390;53.566;9.980;2022-10-26T01:09:31;24.00;1.00
20463;DHT22;10390;53.566;9.980;2022-10-26T01:11:57;24.00;1.00
20463;DHT22;10390;53.566;9.980;2022-10-26T01:14:24;24.00;1.00
20463;DHT22;10390;53.566;9.980;2022-10-26T01:31:27;24.00;1.00
20463;DHT22;10390;53.566;9.980;2022-10-26T01:34:08;24.00;1.00
20463;DHT22;10390;53.566;9.980;2022-10-26T01:36:43;24.00;1.00
20463;DHT22;10390;53.566;9.980;2022-10-26T01:41:49;24.00;1.00
20463;DHT22;10390;53.566;9.980;2022-10-26T01:44:23;24.00;1.00
20463;DHT22;10390;53.566;9.980;2022-10-26T01:46:52;24.00;1.00
20463;DHT22;10390;53.566;9.980;2022-10-26T01:49:21;24.00;1.00
20463;DHT22;10390;53.566;9.980;2022-10-26T01:51:48;24.00;1.00
20463;DHT22;10390;53.566;9.980;2022-10-26T01:54:15;24.00;1.00
20463;DHT22;10390;53.566;9.980;2022-10-26T01:56:43;24.00;1.00
20463;DHT22;10390;53.566;9.980;2022-10-26T01:59:46;24.00;1.00
20463;DHT22;10390;53.566;9.980;2022-10-26T02:04:50;24.00;1.00
20463;DHT22;10390;53.566;9.980;2022-10-26T02:10:20;24.00;1.00
20463;DHT22;10390;53.566;9.980;2022-10-26T02:13:25;23.90;1.00
20463;DHT22;10390;53.566;9.980;2022-10-26T02:15:52;24.00;1.00
20463;DHT22;10390;53.566;9.980;2022-10-26T02:21:02;24.00;1.00
20463;DHT22;10390;53.566;9.980;2022-10-26T02:23:31;24.00;1.00
20463;DHT22;10390;53.566;9.980;2022-10-26T02:25:58;23.90;1.00
20463;DHT22;10390;53.566;9.980;2022-10-26T02:28:30;23.90;1.00
20463;DHT22;10390;53.566;9.980;2022-10-26T02:30:58;24.00;1.00
20463;DHT22;10390;53.566;9.980;2022-10-26T02:33:28;23.90;1.00
20463;DHT22;10390;53.566;9.980;2022-10-26T02:35:55;24.00;1.00
20463;DHT22;10390;53.566;9.980;2022-10-26T02:38:23;23.90;1.00
20463;DHT22;10390;53.566;9.980;2022-10-26T02:40:50;23.90;1.00
20463;DHT22;10390;53.566;9.980;2022-10-26T02:43:17;23.90;1.00
20463;DHT22;10390;53.566;9.980;2022-10-26T02:45:51;23.90;1.00
20463;DHT22;10390;53.566;9.980;2022-10-26T02:48:18;23.90;1.00
20463;DHT22;10390;53.566;9.980;2022-10-26T02:54:18;23.90;1.00
20463;DHT22;10390;53.566;9.980;2022-10-26T02:56:47;23.90;1.00
20463;DHT22;10390;53.566;9.980;2022-10-26T02:59:20;23.90;1.00
20463;DHT22;10390;53.566;9.980;2022-10-26T03:01:47;23.90;1.00
20463;DHT22;10390;53.566;9.980;2022-10-26T03:04:14;23.90;1.00
20463;DHT22;10390;53.566;9.980;2022-10-26T03:06:40;23.90;1.00
20463;DHT22;10390;53.566;9.980;2022-10-26T03:09:05;23.90;1.00
20463;DHT22;10390;53.566;9.980;2022-10-26T03:11:31;23.90;1.00
20463;DHT22;10390;53.566;9.980;2022-10-26T03:13:57;23.90;1.00
20463;DHT22;10390;53.566;9.980;2022-10-26T03:16:22;23.90;1.00
20463;DHT22;10390;53.566;9.980;2022-10-26T03:18:48;23.90;1.00
20463;DHT22;10390;53.566;9.980;2022-10-26T03:21:13;23.90;1.00
20463;DHT22;10390;53.566;9.980;2022-10-26T03:23:39;23.90;1.00
20463;DHT22;10390;53.566;9.980;2022-10-26T03:26:06;23.90;1.00
20463;DHT22;10390;53.566;9.980;2022-10-26T03:28:32;23.90;1.00
20463;DHT22;10390;53.566;9.980;2022-10-26T03:30:57;23.90;1.00
20463;DHT22;10390;53.566;9.980;2022-10-26T03:33:23;23.90;1.00
20463;DHT22;10390;53.566;9.980;2022-10-26T03:35:54;23.90;1.00
20463;DHT22;10390;53.566;9.980;2022-10-26T03:38:21;23.90;1.00
20463;DHT22;10390;53.566;9.980;2022-10-26T03:40:46;23.90;1.00
20463;DHT22;10390;53.566;9.980;2022-10-26T03:43:12;23.90;1.00
20463;DHT22;10390;53.566;9.980;2022-10-26T03:45:38;23.90;1.00
20463;DHT22;10390;53.566;9.980;2022-10-26T03:48:04;23.80;1.00
20463;DHT22;10390;53.566;9.980;2022-10-26T03:50:29;23.90;1.00
20463;DHT22;10390;53.566;9.980;2022-10-26T03:52:55;23.90;1.00
20463;DHT22;10390;53.566;9.980;2022-10-26T03:55:21;23.90;1.00
20463;DHT22;10390;53.566;9.980;2022-10-26T03:57:46;23.90;1.00
20463;DHT22;10390;53.566;9.980;2022-10-26T04:00:14;23.90;1.00
20463;DHT22;10390;53.566;9.980;2022-10-26T04:02:45;23.90;1.00
20463;DHT22;10390;53.566;9.980;2022-10-26T04:05:17;23.80;1.00
20463;DHT22;10390;53.566;9.980;2022-10-26T04:07:43;23.90;1.00
20463;DHT22;10390;53.566;9.980;2022-10-26T04:10:09;23.90;1.00
20463;DHT22;10390;53.566;9.980;2022-10-26T04:12:38;23.90;1.00
20463;DHT22;10390;53.566;9.980;2022-10-26T04:15:05;23.90;1.00
20463;DHT22;10390;53.566;9.980;2022-10-26T04:17:31;23.90;1.00
20463;DHT22;10390;53.566;9.980;2022-10-26T04:19:57;23.90;1.00
20463;DHT22;10390;53.566;9.980;2022-10-26T04:22:22;23.90;1.00
20463;DHT22;10390;53.566;9.980;2022-10-26T04:24:48;23.90;1.00
20463;DHT22;10390;53.566;9.980;2022-10-26T04:27:14;23.80;1.00
20463;DHT22;10390;53.566;9.980;2022-10-26T04:29:40;23.90;1.00
20463;DHT22;10390;53.566;9.980;2022-10-26T04:32:05;23.90;1.00
20463;DHT22;10390;53.566;9.980;2022-10-26T04:34:31;23.80;1.00
20463;DHT22;10390;53.566;9.980;2022-10-26T04:36:57;23.80;1.00
20463;DHT22;10390;53.566;9.980;2022-10-26T04:39:23;23.80;1.00
20463;DHT22;10390;53.566;9.980;2022-10-26T04:41:48;23.90;1.00
20463;DHT22;10390;53.566;9.980;2022-10-26T04:44:14;23.80;1.00
20463;DHT22;10390;53.566;9.980;2022-10-26T04:46:40;23.80;1.00
20463;DHT22;10390;53.566;9.980;2022-10-26T04:49:06;23.90;1.00
20463;DHT22;10390;53.566;9.980;2022-10-26T04:51:31;23.80;1.00
20463;DHT22;10390;53.566;9.980;2022-10-26T04:53:57;23.90;1.00
20463;DHT22;10390;53.566;9.980;2022-10-26T04:56:22;23.80;1.00
20463;DHT22;10390;53.566;9.980;2022-10-26T04:58:48;23.90;1.00
20463;DHT22;10390;53.566;9.980;2022-10-26T05:01:14;23.90;1.00
20463;DHT22;10390;53.566;9.980;2022-10-26T05:03:39;23.90;1.00
20463;DHT22;10390;53.566;9.980;2022-10-26T05:06:05;23.80;1.00
20463;DHT22;10390;53.566;9.980;2022-10-26T05:08:31;23.80;1.00
20463;DHT22;10390;53.566;9.980;2022-10-26T05:10:56;23.80;1.00
20463;DHT22;10390;53.566;9.980;2022-10-26T05:13:22;23.80;1.00
20463;DHT22;10390;53.566;9.980;2022-10-26T05:15:51;23.80;1.00
20463;DHT22;10390;53.566;9.980;2022-10-26T05:18:17;23.80;1.00
20463;DHT22;10390;53.566;9.980;2022-10-26T05:20:42;23.80;1.00
20463;DHT22;10390;53.566;9.980;2022-10-26T05:23:10;23.80;1.00
20463;DHT22;10390;53.566;9.980;2022-10-26T05:25:37;23.80;1.00
20463;DHT22;10390;53.566;9.980;2022-10-26T05:28:08;23.80;1.00
20463;DHT22;10390;53.566;9.980;2022-10-26T05:30:36;23.90;1.00
20463;DHT22;10390;53.566;9.980;2022-10-26T05:33:01;23.80;1.00
20463;DHT22;10390;53.566;9.980;2022-10-26T05:35:29;23.80;1.00
20463;DHT22;10390;53.566;9.980;2022-10-26T05:37:55;23.80;1.00
20463;DHT22;10390;53.566;9.980;2022-10-26T05:40:21;23.80;1.00
20463;DHT22;10390;53.566;9.980;2022-10-26T05:42:47;23.80;1.00
20463;DHT22;10390;53.566;9.980;2022-10-26T05:45:15;23.80;1.00
20463;DHT22;10390;53.566;9.980;2022-10-26T05:47:43;23.80;1.00
20463;DHT22;10390;53.566;9.980;2022-10-26T05:50:10;23.80;1.00
20463;DHT22;10390;53.566;9.980;2022-10-26T05:52:44;23.80;1.00
20463;DHT22;10390;53.566;9.980;2022-10-26T05:55:13;23.80;1.00
20463;DHT22;10390;53.566;9.980;2022-10-26T05:57:39;23.80;1.00
20463;DHT22;10390;53.566;9.980;2022-10-26T06:00:14;23.80;1.00
20463;DHT22;10390;53.566;9.980;2022-10-26T06:08:18;23.80;1.00
20463;DHT22;10390;53.566;9.980;2022-10-26T06:10:45;23.70;1.00
20463;DHT22;10390;53.566;9.980;2022-10-26T06:13:11;23.80;1.00
20463;DHT22;10390;53.566;9.980;2022-10-26T06:16:05;23.70;1.00
20463;DHT22;10390;53.566;9.980;2022-10-26T06:21:45;23.80;1.00
20463;DHT22;10390;53.566;9.980;2022-10-26T06:27:32;23.70;1.00
20463;DHT22;10390;53.566;9.980;2022-10-26T06:30:05;23.70;1.00
20463;DHT22;10390;53.566;9.980;2022-10-26T06:32:32;23.70;1.00
20463;DHT22;10390;53.566;9.980;2022-10-26T06:37:44;23.70;1.00
20463;DHT22;10390;53.566;9.980;2022-10-26T06:40:13;23.70;1.00
20463;DHT22;10390;53.566;9.980;2022-10-26T06:42:40;23.70;1.00
20463;DHT22;10390;53.566;9.980;2022-10-26T06:45:09;23.70;1.00
20463;DHT22;10390;53.566;9.980;2022-10-26T06:48:09;23.70;1.00
20463;DHT22;10390;53.566;9.980;2022-10-26T06:50:50;23.70;1.00
20463;DHT22;10390;53.566;9.980;2022-10-26T06:53:39;23.70;1.00
20463;DHT22;10390;53.566;9.980;2022-10-26T06:56:08;23.70;1.00
20463;DHT22;10390;53.566;9.980;2022-10-26T06:58:35;23.70;1.00
20463;DHT22;10390;53.566;9.980;2022-10-26T07:01:02;23.70;1.00
20463;DHT22;10390;53.566;9.980;2022-10-26T07:03:28;23.70;1.00
20463;DHT22;10390;53.566;9.980;2022-10-26T07:05:53;23.60;1.00
20463;DHT22;10390;53.566;9.980;2022-10-26T07:08:19;23.70;1.00
20463;DHT22;10390;53.566;9.980;2022-10-26T07:10:46;23.70;1.00
20463;DHT22;10390;53.566;9.980;2022-10-26T07:13:11;23.60;1.00
20463;DHT22;10390;53.566;9.980;2022-10-26T07:15:38;23.70;1.00
20463;DHT22;10390;53.566;9.980;2022-10-26T07:18:06;23.70;1.00
20463;DHT22;10390;53.566;9.980;2022-10-26T07:20:38;23.60;1.00
20463;DHT22;10390;53.566;9.980;2022-10-26T07:23:05;23.60;1.00
20463;DHT22;10390;53.566;9.980;2022-10-26T07:25:32;23.70;1.00
20463;DHT22;10390;53.566;9.980;2022-10-26T07:27:58;23.60;1.00
20463;DHT22;10390;53.566;9.980;2022-10-26T07:30:27;23.70;1.00
20463;DHT22;10390;53.566;9.980;2022-10-26T07:33:07;23.60;1.00
20463;DHT22;10390;53.566;9.980;2022-10-26T07:35:33;23.60;1.00
20463;DHT22;10390;53.566;9.980;2022-10-26T07:37:59;23.60;1.00
20463;DHT22;10390;53.566;9.980;2022-10-26T07:40:25;23.60;1.00
20463;DHT22;10390;53.566;9.980;2022-10-26T07:42:51;23.60;1.00
20463;DHT22;10390;53.566;9.980;2022-10-26T07:45:18;23.60;1.00
20463;DHT22;10390;53.566;9.980;2022-10-26T07:47:43;23.60;1.00
20463;DHT22;10390;53.566;9.980;2022-10-26T07:50:10;23.60;1.00
20463;DHT22;10390;53.566;9.980;2022-10-26T07:52:36;23.70;1.00
20463;DHT22;10390;53.566;9.980;2022-10-26T07:55:04;23.70;1.00
20463;DHT22;10390;53.566;9.980;2022-10-26T07:57:30;23.70;1.00
20463;DHT22;10390;53.566;9.980;2022-10-26T07:59:55;23.60;1.00
20463;DHT22;10390;53.566;9.980;2022-10-26T08:02:21;23.60;1.00
20463;DHT22;10390;53.566;9.980;2022-10-26T08:04:48;23.70;1.00
20463;DHT22;10390;53.566;9.980;2022-10-26T08:07:14;23.70;1.00
20463;DHT22;10390;53.566;9.980;2022-10-26T08:09:40;23.70;1.00
20463;DHT22;10390;53.566;9.980;2022-10-26T08:12:06;23.70;1.00
20463;DHT22;10390;53.566;9.980;2022-10-26T08:14:31;23.70;1.00
20463;DHT22;10390;53.566;9.980;2022-10-26T08:16:57;23.60;1.00
20463;DHT22;10390;53.566;9.980;2022-10-26T08:19:23;23.70;1.00
20463;DHT22;10390;53.566;9.980;2022-10-26T08:21:49;23.70;1.00
20463;DHT22;10390;53.566;9.980;2022-10-26T08:24:15;23.60;1.00
20463;DHT22;10390;53.566;9.980;2022-10-26T08:26:41;23.70;1.00
20463;DHT22;10390;53.566;9.980;2022-10-26T08:29:07;23.70;1.00
20463;DHT22;10390;53.566;9.980;2022-10-26T08:31:33;23.60;1.00
20463;DHT22;10390;53.566;9.980;2022-10-26T08:33:58;23.60;1.00
20463;DHT22;10390;53.566;9.980;2022-10-26T08:36:26;23.70;1.00
20463;DHT22;10390;53.566;9.980;2022-10-26T08:38:52;23.60;1.00
20463;DHT22;10390;53.566;9.980;2022-10-26T08:41:31;23.60;1.00
20463;DHT22;10390;53.566;9.980;2022-10-26T08:44:19;23.60;1.00
20463;DHT22;10390;53.566;9.980;2022-10-26T08:46:49;23.70;1.00
20463;DHT22;10390;53.566;9.980;2022-10-26T08:49:21;23.70;1.00
20463;DHT22;10390;53.566;9.980;2022-10-26T08:51:50;23.70;1.00
20463;DHT22;10390;53.566;9.980;2022-10-26T08:54:27;23.60;1.00
20463;DHT22;10390;53.566;9.980;2022-10-26T09:02:32;23.60;1.00
20463;DHT22;10390;53.566;9.980;2022-10-26T09:04:59;23.60;1.00
20463;DHT22;10390;53.566;9.980;2022-10-26T09:13:18;23.60;1.00
20463;DHT22;10390;53.566;9.980;2022-10-26T09:16:06;23.60;1.00
20463;DHT22;10390;53.566;9.980;2022-10-26T09:18:56;23.60;1.00
20463;DHT22;10390;53.566;9.980;2022-10-26T09:21:34;23.60;1.00
20463;DHT22;10390;53.566;9.980;2022-10-26T09:27:26;23.60;1.00
20463;DHT22;10390;53.566;9.980;2022-10-26T09:29:54;23.60;1.00
20463;DHT22;10390;53.566;9.980;2022-10-26T09:32:30;23.60;1.00
20463;DHT22;10390;53.566;9.980;2022-10-26T09:35:02;23.60;1.00
20463;DHT22;10390;53.566;9.980;2022-10-26T09:37:36;23.60;1.00
20463;DHT22;10390;53.566;9.980;2022-10-26T09:40:12;23.60;1.00
20463;DHT22;10390;53.566;9.980;2022-10-26T09:42:58;23.60;1.00
20463;DHT22;10390;53.566;9.980;2022-10-26T09:45:41;23.60;1.00
20463;DHT22;10390;53.566;9.980;2022-10-26T09:50:47;23.60;1.00
20463;DHT22;10390;53.566;9.980;2022-10-26T09:53:13;23.60;1.00
20463;DHT22;10390;53.566;9.980;2022-10-26T09:55:41;23.60;1.00
20463;DHT22;10390;53.566;9.980;2022-10-26T09:58:29;23.60;1.00
20463;DHT22;10390;53.566;9.980;2022-10-26T10:00:56;23.60;1.00
20463;DHT22;10390;53.566;9.980;2022-10-26T10:03:30;23.60;1.00
20463;DHT22;10390;53.566;9.980;2022-10-26T10:06:19;23.60;1.00
20463;DHT22;10390;53.566;9.980;2022-10-26T10:11:47;23.60;1.00
20463;DHT22;10390;53.566;9.980;2022-10-26T10:14:30;23.60;1.00
20463;DHT22;10390;53.566;9.980;2022-10-26T10:19:28;23.60;1.00
20463;DHT22;10390;53.566;9.980;2022-10-26T10:21:57;23.60;1.00
20463;DHT22;10390;53.566;9.980;2022-10-26T10:24:29;23.60;1.00
20463;DHT22;10390;53.566;9.980;2022-10-26T10:27:15;23.60;1.00
20463;DHT22;10390;53.566;9.980;2022-10-26T10:29:53;23.60;1.00
20463;DHT22;10390;53.566;9.980;2022-10-26T10:32:24;23.60;1.00
20463;DHT22;10390;53.566;9.980;2022-10-26T10:34:55;23.60;1.00
20463;DHT22;10390;53.566;9.980;2022-10-26T10:39:50;23.60;1.00
20463;DHT22;10390;53.566;9.980;2022-10-26T10:42:24;23.60;1.00
20463;DHT22;10390;53.566;9.980;2022-10-26T10:44:53;23.50;1.00
20463;DHT22;10390;53.566;9.980;2022-10-26T10:47:38;23.60;1.00
20463;DHT22;10390;53.566;9.980;2022-10-26T10:50:16;23.50;1.00
20463;DHT22;10390;53.566;9.980;2022-10-26T10:52:43;23.50;1.00
20463;DHT22;10390;53.566;9.980;2022-10-26T11:00:23;23.50;1.00
20463;DHT22;10390;53.566;9.980;2022-10-26T11:03:04;23.50;1.00
20463;DHT22;10390;53.566;9.980;2022-10-26T11:11:20;23.50;1.00
20463;DHT22;10390;53.566;9.980;2022-10-26T11:14:11;23.50;1.00
20463;DHT22;10390;53.566;9.980;2022-10-26T11:16:55;23.50;1.00
20463;DHT22;10390;53.566;9.980;2022-10-26T11:19:52;23.50;1.00
20463;DHT22;10390;53.566;9.980;2022-10-26T11:22:27;23.50;1.00
20463;DHT22;10390;53.566;9.980;2022-10-26T11:25:17;23.50;1.00
20463;DHT22;10390;53.566;9.980;2022-10-26T11:27:52;23.50;1.00
20463;DHT22;10390;53.566;9.980;2022-10-26T11:30:23;23.50;1.00
20463;DHT22;10390;53.566;9.980;2022-10-26T11:33:09;23.50;1.00
20463;DHT22;10390;53.566;9.980;2022-10-26T11:35:45;23.50;1.00
20463;DHT22;10390;53.566;9.980;2022-10-26T11:41:08;23.50;1.00
20463;DHT22;10390;53.566;9.980;2022-10-26T11:46:09;23.50;1.00
20463;DHT22;10390;53.566;9.980;2022-10-26T11:51:32;23.50;1.00
20463;DHT22;10390;53.566;9.980;2022-10-26T11:54:09;23.50;1.00
20463;DHT22;10390;53.566;9.980;2022-10-26T11:56:41;23.50;1.00
20463;DHT22;10390;53.566;9.980;2022-10-26T11:59:18;23.50;1.00
20463;DHT22;10390;53.566;9.980;2022-10-26T12:01:47;23.50;1.00
20463;DHT22;10390;53.566;9.980;2022-10-26T12:04:16;23.50;1.00
20463;DHT22;10390;53.566;9.980;2022-10-26T12:06:42;23.50;1.00
20463;DHT22;10390;53.566;9.980;2022-10-26T12:09:17;23.50;1.00
20463;DHT22;10390;53.566;9.980;2022-10-26T12:17:34;23.50;1.00
20463;DHT22;10390;53.566;9.980;2022-10-26T12:20:11;23.50;1.00
20463;DHT22;10390;53.566;9.980;2022-10-26T12:22:43;23.50;1.00
20463;DHT22;10390;53.566;9.980;2022-10-26T12:35:40;23.50;1.00
20463;DHT22;10390;53.566;9.980;2022-10-26T12:48:49;23.50;1.00
20463;DHT22;10390;53.566;9.980;2022-10-26T12:56:50;23.40;1.00
20463;DHT22;10390;53.566;9.980;2022-10-26T13:02:52;23.40;1.00
20463;DHT22;10390;53.566;9.980;2022-10-26T13:08:12;23.40;1.00
20463;DHT22;10390;53.566;9.980;2022-10-26T13:11:04;23.40;1.00
20463;DHT22;10390;53.566;9.980;2022-10-26T13:13:30;23.40;1.00
20463;DHT22;10390;53.566;9.980;2022-10-26T13:15:57;23.40;1.00
20463;DHT22;10390;53.566;9.980;2022-10-26T13:18:24;23.40;1.00
20463;DHT22;10390;53.566;9.980;2022-10-26T13:23:30;23.40;1.00
20463;DHT22;10390;53.566;9.980;2022-10-26T13:26:15;23.40;1.00
20463;DHT22;10390;53.566;9.980;2022-10-26T13:28:49;23.40;1.00
20463;DHT22;10390;53.566;9.980;2022-10-26T13:34:15;23.40;1.00
20463;DHT22;10390;53.566;9.980;2022-10-26T13:41:57;23.30;1.00
20463;DHT22;10390;53.566;9.980;2022-10-26T13:44:51;23.40;1.00
20463;DHT22;10390;53.566;9.980;2022-10-26T13:50:23;23.40;1.00
20463;DHT22;10390;53.566;9.980;2022-10-26T13:52:53;23.40;1.00
20463;DHT22;10390;53.566;9.980;2022-10-26T13:55:27;23.40;1.00
20463;DHT22;10390;53.566;9.980;2022-10-26T13:58:16;23.30;1.00
20463;DHT22;10390;53.566;9.980;2022-10-26T14:03:36;23.40;1.00
20463;DHT22;10390;53.566;9.980;2022-10-26T14:06:31;23.40;1.00
20463;DHT22;10390;53.566;9.980;2022-10-26T14:09:04;23.40;1.00
20463;DHT22;10390;53.566;9.980;2022-10-26T14:11:54;23.30;1.00
20463;DHT22;10390;53.566;9.980;2022-10-26T14:14:25;23.30;1.00
20463;DHT22;10390;53.566;9.980;2022-10-26T14:16:56;23.30;1.00
20463;DHT22;10390;53.566;9.980;2022-10-26T14:21:53;23.30;1.00
20463;DHT22;10390;53.566;9.980;2022-10-26T14:24:27;23.30;1.00
20463;DHT22;10390;53.566;9.980;2022-10-26T14:26:54;23.30;1.00
20463;DHT22;10390;53.566;9.980;2022-10-26T14:29:21;23.40;1.00
20463;DHT22;10390;53.566;9.980;2022-10-26T14:31:48;23.30;1.00
20463;DHT22;10390;53.566;9.980;2022-10-26T14:34:24;23.30;1.00
20463;DHT22;10390;53.566;9.980;2022-10-26T14:37:00;23.40;1.00
20463;DHT22;10390;53.566;9.980;2022-10-26T14:39:37;23.30;1.00
20463;DHT22;10390;53.566;9.980;2022-10-26T14:42:14;23.30;1.00
20463;DHT22;10390;53.566;9.980;2022-10-26T14:44:40;23.30;1.00
20463;DHT22;10390;53.566;9.980;2022-10-26T14:47:13;23.30;1.00
20463;DHT22;10390;53.566;9.980;2022-10-26T14:49:44;23.30;1.00
20463;DHT22;10390;53.566;9.980;2022-10-26T14:52:18;23.30;1.00
20463;DHT22;10390;53.566;9.980;2022-10-26T14:54:59;23.30;1.00
20463;DHT22;10390;53.566;9.980;2022-10-26T15:00:00;23.30;1.00
20463;DHT22;10390;53.566;9.980;2022-10-26T15:02:27;23.30;1.00
20463;DHT22;10390;53.566;9.980;2022-10-26T15:05:21;23.30;1.00
20463;DHT22;10390;53.566;9.980;2022-10-26T15:07:52;23.30;1.00
20463;DHT22;10390;53.566;9.980;2022-10-26T15:13:30;23.30;1.00
20463;DHT22;10390;53.566;9.980;2022-10-26T15:16:17;23.30;1.00
20463;DHT22;10390;53.566;9.980;2022-10-26T15:18:45;23.30;1.00
20463;DHT22;10390;53.566;9.980;2022-10-26T15:26:59;23.30;1.00
20463;DHT22;10390;53.566;9.980;2022-10-26T15:32:24;23.30;1.00
20463;DHT22;10390;53.566;9.980;2022-10-26T15:37:49;23.30;1.00
20463;DHT22;10390;53.566;9.980;2022-10-26T15:40:16;23.30;1.00
20463;DHT22;10390;53.566;9.980;2022-10-26T15:42:42;23.30;1.00
20463;DHT22;10390;53.566;9.980;2022-10-26T15:45:18;23.30;1.00
20463;DHT22;10390;53.566;9.980;2022-10-26T15:47:44;23.40;1.00
20463;DHT22;10390;53.566;9.980;2022-10-26T15:50:16;23.30;1.00
20463;DHT22;10390;53.566;9.980;2022-10-26T15:52:42;23.40;1.00
20463;DHT22;10390;53.566;9.980;2022-10-26T15:55:09;23.40;1.00
20463;DHT22;10390;53.566;9.980;2022-10-26T15:57:35;23.40;1.00
20463;DHT22;10390;53.566;9.980;2022-10-26T16:00:02;23.40;1.00
20463;DHT22;10390;53.566;9.980;2022-10-26T16:02:28;23.40;1.00
20463;DHT22;10390;53.566;9.980;2022-10-26T16:04:53;23.40;1.00
20463;DHT22;10390;53.566;9.980;2022-10-26T16:07:20;23.40;1.00
20463;DHT22;10390;53.566;9.980;2022-10-26T16:09:47;23.40;1.00
20463;DHT22;10390;53.566;9.980;2022-10-26T16:12:13;23.40;1.00
20463;DHT22;10390;53.566;9.980;2022-10-26T16:14:39;23.40;1.00
20463;DHT22;10390;53.566;9.980;2022-10-26T16:17:06;23.40;1.00
20463;DHT22;10390;53.566;9.980;2022-10-26T16:19:32;23.40;1.00
20463;DHT22;10390;53.566;9.980;2022-10-26T16:21:59;23.40;1.00
20463;DHT22;10390;53.566;9.980;2022-10-26T16:24:26;23.40;1.00
20463;DHT22;10390;53.566;9.980;2022-10-26T16:26:51;23.40;1.00
20463;DHT22;10390;53.566;9.980;2022-10-26T16:29:17;23.40;1.00
20463;DHT22;10390;53.566;9.980;2022-10-26T16:31:44;23.40;1.00
20463;DHT22;10390;53.566;9.980;2022-10-26T16:34:10;23.40;1.00
20463;DHT22;10390;53.566;9.980;2022-10-26T16:36:35;23.40;1.00
20463;DHT22;10390;53.566;9.980;2022-10-26T16:39:03;23.40;1.00
20463;DHT22;10390;53.566;9.980;2022-10-26T16:41:29;23.40;1.00
20463;DHT22;10390;53.566;9.980;2022-10-26T16:43:59;23.40;1.00
20463;DHT22;10390;53.566;9.980;2022-10-26T16:46:25;23.40;1.00
20463;DHT22;10390;53.566;9.980;2022-10-26T16:48:51;23.40;1.00
20463;DHT22;10390;53.566;9.980;2022-10-26T16:51:22;23.50;1.00
20463;DHT22;10390;53.566;9.980;2022-10-26T16:53:50;23.50;1.00
20463;DHT22;10390;53.566;9.980;2022-10-26T16:56:21;23.40;1.00
20463;DHT22;10390;53.566;9.980;2022-10-26T16:58:47;23.40;1.00
20463;DHT22;10390;53.566;9.980;2022-10-26T17:01:14;23.40;1.00
20463;DHT22;10390;53.566;9.980;2022-10-26T17:03:47;23.50;1.00
20463;DHT22;10390;53.566;9.980;2022-10-26T17:06:14;23.40;1.00
20463;DHT22;10390;53.566;9.980;2022-10-26T17:08:42;23.50;1.00
20463;DHT22;10390;53.566;9.980;2022-10-26T17:11:13;23.40;1.00
20463;DHT22;10390;53.566;9.980;2022-10-26T17:13:40;23.50;1.00
20463;DHT22;10390;53.566;9.980;2022-10-26T17:16:10;23.50;1.00
20463;DHT22;10390;53.566;9.980;2022-10-26T17:18:59;23.40;1.00
20463;DHT22;10390;53.566;9.980;2022-10-26T17:21:48;23.40;1.00
20463;DHT22;10390;53.566;9.980;2022-10-26T17:24:17;23.40;1.00
20463;DHT22;10390;53.566;9.980;2022-10-26T17:26:47;23.40;1.00
20463;DHT22;10390;53.566;9.980;2022-10-26T17:29:14;23.50;1.00
20463;DHT22;10390;53.566;9.980;2022-10-26T17:31:43;23.50;1.00
20463;DHT22;10390;53.566;9.980;2022-10-26T17:34:10;23.50;1.00
20463;DHT22;10390;53.566;9.980;2022-10-26T17:36:58;23.50;1.00
20463;DHT22;10390;53.566;9.980;2022-10-26T17:39:36;23.50;1.00
20463;DHT22;10390;53.566;9.980;2022-10-26T17:42:04;23.40;1.00
20463;DHT22;10390;53.566;9.980;2022-10-26T17:44:29;23.50;1.00
20463;DHT22;10390;53.566;9.980;2022-10-26T17:46:55;23.50;1.00
20463;DHT22;10390;53.566;9.980;2022-10-26T17:49:21;23.50;1.00
20463;DHT22;10390;53.566;9.980;2022-10-26T17:51:46;23.50;1.00
20463;DHT22;10390;53.566;9.980;2022-10-26T17:54:12;23.50;1.00
20463;DHT22;10390;53.566;9.980;2022-10-26T17:56:41;23.50;1.00
20463;DHT22;10390;53.566;9.980;2022-10-26T17:59:10;23.50;1.00
20463;DHT22;10390;53.566;9.980;2022-10-26T18:01:36;23.50;1.00
20463;DHT22;10390;53.566;9.980;2022-10-26T18:04:02;23.60;1.00
20463;DHT22;10390;53.566;9.980;2022-10-26T18:06:27;23.50;1.00
20463;DHT22;10390;53.566;9.980;2022-10-26T18:08:56;23.50;1.00
20463;DHT22;10390;53.566;9.980;2022-10-26T18:11:22;23.50;1.00
20463;DHT22;10390;53.566;9.980;2022-10-26T18:13:48;23.60;1.00
20463;DHT22;10390;53.566;9.980;2022-10-26T18:16:18;23.50;1.00
20463;DHT22;10390;53.566;9.980;2022-10-26T18:18:47;23.50;1.00
20463;DHT22;10390;53.566;9.980;2022-10-26T18:21:18;23.50;1.00
20463;DHT22;10390;53.566;9.980;2022-10-26T18:23:44;23.60;1.00
20463;DHT22;10390;53.566;9.980;2022-10-26T18:26:19;23.60;1.00
20463;DHT22;10390;53.566;9.980;2022-10-26T18:28:45;23.60;1.00
20463;DHT22;10390;53.566;9.980;2022-10-26T18:31:13;23.60;1.00
20463;DHT22;10390;53.566;9.980;2022-10-26T18:33:39;23.60;1.00
20463;DHT22;10390;53.566;9.980;2022-10-26T18:36:12;23.60;1.00
20463;DHT22;10390;53.566;9.980;2022-10-26T18:38:38;23.60;1.00
20463;DHT22;10390;53.566;9.980;2022-10-26T18:41:05;23.60;1.00
20463;DHT22;10390;53.566;9.980;2022-10-26T18:43:31;23.60;1.00
20463;DHT22;10390;53.566;9.980;2022-10-26T18:46:09;23.60;1.00
20463;DHT22;10390;53.566;9.980;2022-10-26T18:48:35;23.60;1.00